sensor_id;sensor_type;location;lat;lon;timestamp;P1;durP1;ratioP1;P2;durP2;ratioP2
11078;SDS011;5592;49.234;7.268;2023-12-20T00:01:28;4.13;;;3.63;;
11078;SDS011;5592;49.234;7.268;2023-12-20T00:03:54;4.97;;;3.63;;
11078;SDS011;5592;49.234;7.268;2023-12-20T00:06:19;5.53;;;3.70;;
11078;SDS011;5592;49.234;7.268;2023-12-20T00:08:45;5.87;;;4.10;;
11078;SDS011;5592;49.234;7.268;2023-12-20T00:11:11;5.87;;;3.93;;
11078;SDS011;5592;49.234;7.268;2023-12-20T00:13:36;7.90;;;3.70;;
11078;SDS011;5592;49.234;7.268;2023-12-20T00:16:04;4.53;;;3.73;;
11078;SDS011;5592;49.234;7.268;2023-12-20T00:18:30;6.07;;;3.70;;
11078;SDS011;5592;49.234;7.268;2023-12-20T00:20:56;3.73;;;3.23;;
11078;SDS011;5592;49.234;7.268;2023-12-20T00:23:21;4.97;;;3.77;;
11078;SDS011;5592;49.234;7.268;2023-12-20T00:25:48;5.47;;;3.63;;
11078;SDS011;5592;49.234;7.268;2023-12-20T00:28:14;4.23;;;3.10;;
11078;SDS011;5592;49.234;7.268;2023-12-20T00:30:40;3.57;;;3.27;;
11078;SDS011;5592;49.234;7.268;2023-12-20T00:33:06;5.13;;;3.40;;
11078;SDS011;5592;49.234;7.268;2023-12-20T00:35:34;4.40;;;3.40;;
11078;SDS011;5592;49.234;7.268;2023-12-20T00:38:00;3.73;;;2.90;;
11078;SDS011;5592;49.234;7.268;2023-12-20T00:40:26;3.53;;;2.93;;
11078;SDS011;5592;49.234;7.268;2023-12-20T00:42:53;4.70;;;3.73;;
11078;SDS011;5592;49.234;7.268;2023-12-20T00:45:18;4.37;;;3.17;;
11078;SDS011;5592;49.234;7.268;2023-12-20T00:47:44;4.87;;;3.33;;
11078;SDS011;5592;49.234;7.268;2023-12-20T00:50:10;4.43;;;3.43;;
11078;SDS011;5592;49.234;7.268;2023-12-20T00:52:36;4.47;;;3.10;;
11078;SDS011;5592;49.234;7.268;2023-12-20T00:55:04;3.40;;;3.07;;
11078;SDS011;5592;49.234;7.268;2023-12-20T00:57:30;4.87;;;3.63;;
11078;SDS011;5592;49.234;7.268;2023-12-20T00:59:56;4.70;;;3.63;;
11078;SDS011;5592;49.234;7.268;2023-12-20T01:02:21;3.30;;;2.87;;
11078;SDS011;5592;49.234;7.268;2023-12-20T01:04:47;5.17;;;3.60;;
11078;SDS011;5592;49.234;7.268;2023-12-20T01:07:13;4.60;;;3.83;;
11078;SDS011;5592;49.234;7.268;2023-12-20T01:09:38;5.00;;;3.60;;
11078;SDS011;5592;49.234;7.268;2023-12-20T01:12:04;3.90;;;3.10;;
11078;SDS011;5592;49.234;7.268;2023-12-20T01:14:30;7.33;;;3.97;;
11078;SDS011;5592;49.234;7.268;2023-12-20T01:16:55;5.23;;;3.80;;
11078;SDS011;5592;49.234;7.268;2023-12-20T01:19:21;3.57;;;2.97;;
11078;SDS011;5592;49.234;7.268;2023-12-20T01:21:46;4.23;;;3.60;;
11078;SDS011;5592;49.234;7.268;2023-12-20T01:24:12;4.53;;;3.63;;
11078;SDS011;5592;49.234;7.268;2023-12-20T01:26:37;4.17;;;3.10;;
11078;SDS011;5592;49.234;7.268;2023-12-20T01:29:03;3.33;;;3.03;;
11078;SDS011;5592;49.234;7.268;2023-12-20T01:31:29;4.97;;;3.53;;
11078;SDS011;5592;49.234;7.268;2023-12-20T01:33:54;4.23;;;3.20;;
11078;SDS011;5592;49.234;7.268;2023-12-20T01:36:20;4.20;;;3.53;;
11078;SDS011;5592;49.234;7.268;2023-12-20T01:38:46;3.70;;;3.17;;
11078;SDS011;5592;49.234;7.268;2023-12-20T01:41:11;4.40;;;3.73;;
11078;SDS011;5592;49.234;7.268;2023-12-20T01:43:37;4.70;;;3.50;;
11078;SDS011;5592;49.234;7.268;2023-12-20T01:46:03;5.43;;;3.83;;
11078;SDS011;5592;49.234;7.268;2023-12-20T01:48:29;4.10;;;3.23;;
11078;SDS011;5592;49.234;7.268;2023-12-20T01:50:57;4.83;;;3.47;;
11078;SDS011;5592;49.234;7.268;2023-12-20T01:53:26;7.13;;;3.80;;
11078;SDS011;5592;49.234;7.268;2023-12-20T01:55:54;6.20;;;4.47;;
11078;SDS011;5592;49.234;7.268;2023-12-20T01:58:21;6.67;;;3.70;;
11078;SDS011;5592;49.234;7.268;2023-12-20T02:00:48;4.97;;;4.23;;
11078;SDS011;5592;49.234;7.268;2023-12-20T02:03:14;3.83;;;3.20;;
11078;SDS011;5592;49.234;7.268;2023-12-20T02:05:40;3.80;;;3.30;;
11078;SDS011;5592;49.234;7.268;2023-12-20T02:08:06;3.67;;;3.30;;
11078;SDS011;5592;49.234;7.268;2023-12-20T02:10:32;4.27;;;3.60;;
11078;SDS011;5592;49.234;7.268;2023-12-20T02:12:57;5.47;;;4.07;;
11078;SDS011;5592;49.234;7.268;2023-12-20T02:15:23;4.80;;;4.13;;
11078;SDS011;5592;49.234;7.268;2023-12-20T02:17:49;4.30;;;3.70;;
11078;SDS011;5592;49.234;7.268;2023-12-20T02:20:15;4.50;;;4.00;;
11078;SDS011;5592;49.234;7.268;2023-12-20T02:22:43;4.00;;;3.17;;
11078;SDS011;5592;49.234;7.268;2023-12-20T02:25:09;5.70;;;4.10;;
11078;SDS011;5592;49.234;7.268;2023-12-20T02:27:34;5.53;;;3.37;;
11078;SDS011;5592;49.234;7.268;2023-12-20T02:30:00;4.30;;;3.53;;
11078;SDS011;5592;49.234;7.268;2023-12-20T02:32:28;6.20;;;3.90;;
11078;SDS011;5592;49.234;7.268;2023-12-20T02:34:54;5.20;;;4.10;;
11078;SDS011;5592;49.234;7.268;2023-12-20T02:37:21;4.90;;;3.50;;
11078;SDS011;5592;49.234;7.268;2023-12-20T02:39:46;5.77;;;4.17;;
11078;SDS011;5592;49.234;7.268;2023-12-20T02:42:12;4.77;;;3.77;;
11078;SDS011;5592;49.234;7.268;2023-12-20T02:44:38;5.60;;;4.00;;
11078;SDS011;5592;49.234;7.268;2023-12-20T02:47:03;6.47;;;4.27;;
11078;SDS011;5592;49.234;7.268;2023-12-20T02:49:29;5.23;;;4.43;;
11078;SDS011;5592;49.234;7.268;2023-12-20T02:51:55;6.60;;;4.13;;
11078;SDS011;5592;49.234;7.268;2023-12-20T02:54:20;4.60;;;4.10;;
11078;SDS011;5592;49.234;7.268;2023-12-20T02:56:46;7.03;;;4.50;;
11078;SDS011;5592;49.234;7.268;2023-12-20T02:59:12;6.47;;;4.30;;
11078;SDS011;5592;49.234;7.268;2023-12-20T03:01:44;8.37;;;5.23;;
11078;SDS011;5592;49.234;7.268;2023-12-20T03:04:11;7.23;;;5.00;;
11078;SDS011;5592;49.234;7.268;2023-12-20T03:06:37;5.83;;;4.37;;
11078;SDS011;5592;49.234;7.268;2023-12-20T03:09:03;6.30;;;4.70;;
11078;SDS011;5592;49.234;7.268;2023-12-20T03:11:29;5.73;;;4.97;;
11078;SDS011;5592;49.234;7.268;2023-12-20T03:13:55;8.10;;;5.30;;
11078;SDS011;5592;49.234;7.268;2023-12-20T03:16:21;5.90;;;5.03;;
11078;SDS011;5592;49.234;7.268;2023-12-20T03:18:47;9.20;;;4.93;;
11078;SDS011;5592;49.234;7.268;2023-12-20T03:21:12;7.30;;;5.30;;
11078;SDS011;5592;49.234;7.268;2023-12-20T03:23:38;7.33;;;5.90;;
11078;SDS011;5592;49.234;7.268;2023-12-20T03:26:06;5.53;;;4.97;;
11078;SDS011;5592;49.234;7.268;2023-12-20T03:28:32;6.20;;;5.00;;
11078;SDS011;5592;49.234;7.268;2023-12-20T03:30:58;7.10;;;5.07;;
11078;SDS011;5592;49.234;7.268;2023-12-20T03:33:23;6.70;;;5.30;;
11078;SDS011;5592;49.234;7.268;2023-12-20T03:35:49;7.33;;;5.97;;
11078;SDS011;5592;49.234;7.268;2023-12-20T03:38:15;6.57;;;5.50;;
11078;SDS011;5592;49.234;7.268;2023-12-20T03:40:40;7.40;;;5.77;;
11078;SDS011;5592;49.234;7.268;2023-12-20T03:43:06;6.67;;;5.73;;
11078;SDS011;5592;49.234;7.268;2023-12-20T03:45:31;7.43;;;6.63;;
11078;SDS011;5592;49.234;7.268;2023-12-20T03:47:57;7.13;;;6.07;;
11078;SDS011;5592;49.234;7.268;2023-12-20T03:50:23;7.70;;;6.57;;
11078;SDS011;5592;49.234;7.268;2023-12-20T03:52:48;8.10;;;6.40;;
11078;SDS011;5592;49.234;7.268;2023-12-20T03:55:14;7.00;;;5.50;;
11078;SDS011;5592;49.234;7.268;2023-12-20T03:57:40;8.30;;;6.40;;
11078;SDS011;5592;49.234;7.268;2023-12-20T04:00:09;7.17;;;6.20;;
11078;SDS011;5592;49.234;7.268;2023-12-20T04:02:38;7.10;;;5.40;;
11078;SDS011;5592;49.234;7.268;2023-12-20T04:05:05;6.17;;;4.73;;
11078;SDS011;5592;49.234;7.268;2023-12-20T04:07:31;6.47;;;5.67;;
11078;SDS011;5592;49.234;7.268;2023-12-20T04:09:57;7.70;;;6.00;;
11078;SDS011;5592;49.234;7.268;2023-12-20T04:12:23;8.00;;;5.40;;
11078;SDS011;5592;49.234;7.268;2023-12-20T04:14:48;8.60;;;5.90;;
11078;SDS011;5592;49.234;7.268;2023-12-20T04:17:14;8.60;;;5.50;;
11078;SDS011;5592;49.234;7.268;2023-12-20T04:19:41;7.40;;;5.20;;
11078;SDS011;5592;49.234;7.268;2023-12-20T04:22:07;6.73;;;5.53;;
11078;SDS011;5592;49.234;7.268;2023-12-20T04:24:33;7.57;;;5.70;;
11078;SDS011;5592;49.234;7.268;2023-12-20T04:26:59;6.60;;;5.47;;
11078;SDS011;5592;49.234;7.268;2023-12-20T04:29:24;5.87;;;5.13;;
11078;SDS011;5592;49.234;7.268;2023-12-20T04:31:53;7.40;;;5.50;;
11078;SDS011;5592;49.234;7.268;2023-12-20T04:34:20;6.97;;;5.30;;
11078;SDS011;5592;49.234;7.268;2023-12-20T04:36:47;7.90;;;5.30;;
11078;SDS011;5592;49.234;7.268;2023-12-20T04:39:12;6.60;;;5.20;;
11078;SDS011;5592;49.234;7.268;2023-12-20T04:41:40;8.80;;;5.97;;
11078;SDS011;5592;49.234;7.268;2023-12-20T04:44:05;6.30;;;5.07;;
11078;SDS011;5592;49.234;7.268;2023-12-20T04:46:31;8.67;;;6.00;;
11078;SDS011;5592;49.234;7.268;2023-12-20T04:48:57;6.80;;;4.93;;
11078;SDS011;5592;49.234;7.268;2023-12-20T04:51:23;6.77;;;4.83;;
11078;SDS011;5592;49.234;7.268;2023-12-20T04:53:49;7.23;;;5.33;;
11078;SDS011;5592;49.234;7.268;2023-12-20T04:56:17;7.27;;;5.10;;
11078;SDS011;5592;49.234;7.268;2023-12-20T04:58:43;4.93;;;3.80;;
11078;SDS011;5592;49.234;7.268;2023-12-20T05:01:09;5.60;;;4.30;;
11078;SDS011;5592;49.234;7.268;2023-12-20T05:03:35;5.83;;;4.30;;
11078;SDS011;5592;49.234;7.268;2023-12-20T05:06:00;9.20;;;4.33;;
11078;SDS011;5592;49.234;7.268;2023-12-20T05:08:26;4.73;;;3.90;;
11078;SDS011;5592;49.234;7.268;2023-12-20T05:10:55;5.63;;;4.60;;
11078;SDS011;5592;49.234;7.268;2023-12-20T05:13:21;14.10;;;4.50;;
11078;SDS011;5592;49.234;7.268;2023-12-20T05:15:47;4.43;;;3.50;;
11078;SDS011;5592;49.234;7.268;2023-12-20T05:18:13;7.53;;;3.00;;
11078;SDS011;5592;49.234;7.268;2023-12-20T05:20:38;6.70;;;4.30;;
11078;SDS011;5592;49.234;7.268;2023-12-20T05:23:04;5.93;;;3.40;;
11078;SDS011;5592;49.234;7.268;2023-12-20T05:25:30;4.63;;;3.30;;
11078;SDS011;5592;49.234;7.268;2023-12-20T05:27:56;6.07;;;3.30;;
11078;SDS011;5592;49.234;7.268;2023-12-20T05:30:21;6.40;;;3.20;;
11078;SDS011;5592;49.234;7.268;2023-12-20T05:32:47;6.90;;;3.27;;
11078;SDS011;5592;49.234;7.268;2023-12-20T05:35:16;4.17;;;3.07;;
11078;SDS011;5592;49.234;7.268;2023-12-20T05:37:42;8.60;;;2.60;;
11078;SDS011;5592;49.234;7.268;2023-12-20T05:40:08;3.47;;;3.17;;
11078;SDS011;5592;49.234;7.268;2023-12-20T05:42:36;5.87;;;2.97;;
11078;SDS011;5592;49.234;7.268;2023-12-20T05:45:02;5.40;;;2.50;;
11078;SDS011;5592;49.234;7.268;2023-12-20T05:47:33;3.30;;;2.40;;
11078;SDS011;5592;49.234;7.268;2023-12-20T05:49:58;5.23;;;2.83;;
11078;SDS011;5592;49.234;7.268;2023-12-20T05:52:24;5.47;;;3.00;;
11078;SDS011;5592;49.234;7.268;2023-12-20T05:54:49;6.27;;;3.20;;
11078;SDS011;5592;49.234;7.268;2023-12-20T05:57:15;4.60;;;2.17;;
11078;SDS011;5592;49.234;7.268;2023-12-20T05:59:41;4.37;;;2.40;;
11078;SDS011;5592;49.234;7.268;2023-12-20T06:02:06;5.60;;;2.17;;
11078;SDS011;5592;49.234;7.268;2023-12-20T06:04:32;4.23;;;2.30;;
11078;SDS011;5592;49.234;7.268;2023-12-20T06:06:57;6.20;;;2.10;;
11078;SDS011;5592;49.234;7.268;2023-12-20T06:09:24;7.00;;;2.00;;
11078;SDS011;5592;49.234;7.268;2023-12-20T06:11:51;3.70;;;1.87;;
11078;SDS011;5592;49.234;7.268;2023-12-20T06:14:17;3.13;;;1.70;;
11078;SDS011;5592;49.234;7.268;2023-12-20T06:16:42;3.47;;;1.73;;
11078;SDS011;5592;49.234;7.268;2023-12-20T06:19:08;7.90;;;1.90;;
11078;SDS011;5592;49.234;7.268;2023-12-20T06:21:34;6.30;;;2.20;;
11078;SDS011;5592;49.234;7.268;2023-12-20T06:23:59;10.73;;;2.60;;
11078;SDS011;5592;49.234;7.268;2023-12-20T06:26:30;5.20;;;2.47;;
11078;SDS011;5592;49.234;7.268;2023-12-20T06:28:56;3.93;;;1.90;;
11078;SDS011;5592;49.234;7.268;2023-12-20T06:31:23;7.93;;;2.00;;
11078;SDS011;5592;49.234;7.268;2023-12-20T06:33:49;3.93;;;1.83;;
11078;SDS011;5592;49.234;7.268;2023-12-20T06:36:22;5.17;;;2.20;;
11078;SDS011;5592;49.234;7.268;2023-12-20T06:38:53;11.37;;;2.20;;
11078;SDS011;5592;49.234;7.268;2023-12-20T06:41:19;8.37;;;2.87;;
11078;SDS011;5592;49.234;7.268;2023-12-20T06:43:45;3.63;;;2.37;;
11078;SDS011;5592;49.234;7.268;2023-12-20T06:46:13;7.40;;;2.30;;
11078;SDS011;5592;49.234;7.268;2023-12-20T06:48:43;9.67;;;2.70;;
11078;SDS011;5592;49.234;7.268;2023-12-20T06:51:11;8.13;;;2.30;;
11078;SDS011;5592;49.234;7.268;2023-12-20T06:53:39;5.17;;;3.30;;
11078;SDS011;5592;49.234;7.268;2023-12-20T06:56:04;19.00;;;3.17;;
11078;SDS011;5592;49.234;7.268;2023-12-20T06:58:30;12.40;;;2.80;;
11078;SDS011;5592;49.234;7.268;2023-12-20T07:00:56;7.87;;;2.50;;
11078;SDS011;5592;49.234;7.268;2023-12-20T07:03:26;9.20;;;2.93;;
11078;SDS011;5592;49.234;7.268;2023-12-20T07:05:52;5.40;;;2.70;;
11078;SDS011;5592;49.234;7.268;2023-12-20T07:08:19;8.27;;;3.03;;
11078;SDS011;5592;49.234;7.268;2023-12-20T07:10:44;10.90;;;2.80;;
11078;SDS011;5592;49.234;7.268;2023-12-20T07:13:12;7.70;;;3.00;;
11078;SDS011;5592;49.234;7.268;2023-12-20T07:15:39;9.77;;;2.83;;
11078;SDS011;5592;49.234;7.268;2023-12-20T07:18:05;7.10;;;2.97;;
11078;SDS011;5592;49.234;7.268;2023-12-20T07:20:31;13.37;;;3.23;;
11078;SDS011;5592;49.234;7.268;2023-12-20T07:23:00;7.10;;;3.10;;
11078;SDS011;5592;49.234;7.268;2023-12-20T07:25:25;6.37;;;3.43;;
11078;SDS011;5592;49.234;7.268;2023-12-20T07:27:51;15.87;;;3.27;;
11078;SDS011;5592;49.234;7.268;2023-12-20T07:30:16;12.37;;;2.80;;
11078;SDS011;5592;49.234;7.268;2023-12-20T07:32:42;6.77;;;3.33;;
11078;SDS011;5592;49.234;7.268;2023-12-20T07:35:08;8.77;;;2.60;;
11078;SDS011;5592;49.234;7.268;2023-12-20T07:37:33;10.67;;;3.10;;
11078;SDS011;5592;49.234;7.268;2023-12-20T07:40:01;11.53;;;3.47;;
11078;SDS011;5592;49.234;7.268;2023-12-20T07:42:26;15.10;;;3.47;;
11078;SDS011;5592;49.234;7.268;2023-12-20T07:44:52;11.23;;;2.83;;
11078;SDS011;5592;49.234;7.268;2023-12-20T07:47:18;9.97;;;2.70;;
11078;SDS011;5592;49.234;7.268;2023-12-20T07:49:46;14.87;;;2.60;;
11078;SDS011;5592;49.234;7.268;2023-12-20T07:52:16;6.17;;;2.67;;
11078;SDS011;5592;49.234;7.268;2023-12-20T07:54:43;9.13;;;3.10;;
11078;SDS011;5592;49.234;7.268;2023-12-20T07:57:09;9.53;;;3.00;;
11078;SDS011;5592;49.234;7.268;2023-12-20T07:59:37;7.73;;;2.97;;
11078;SDS011;5592;49.234;7.268;2023-12-20T08:02:02;11.53;;;3.03;;
11078;SDS011;5592;49.234;7.268;2023-12-20T08:04:28;10.90;;;3.30;;
11078;SDS011;5592;49.234;7.268;2023-12-20T08:06:54;9.73;;;2.93;;
11078;SDS011;5592;49.234;7.268;2023-12-20T08:09:20;9.93;;;2.90;;
11078;SDS011;5592;49.234;7.268;2023-12-20T08:11:46;5.10;;;2.57;;
11078;SDS011;5592;49.234;7.268;2023-12-20T08:14:18;8.07;;;3.27;;
11078;SDS011;5592;49.234;7.268;2023-12-20T08:16:45;8.30;;;3.50;;
11078;SDS011;5592;49.234;7.268;2023-12-20T08:19:13;9.20;;;2.90;;
11078;SDS011;5592;49.234;7.268;2023-12-20T08:21:42;8.20;;;2.90;;
11078;SDS011;5592;49.234;7.268;2023-12-20T08:24:13;5.13;;;2.40;;
11078;SDS011;5592;49.234;7.268;2023-12-20T08:26:47;8.37;;;3.00;;
11078;SDS011;5592;49.234;7.268;2023-12-20T08:29:13;6.87;;;2.80;;
11078;SDS011;5592;49.234;7.268;2023-12-20T08:31:39;9.00;;;3.80;;
11078;SDS011;5592;49.234;7.268;2023-12-20T08:34:09;5.87;;;2.90;;
11078;SDS011;5592;49.234;7.268;2023-12-20T08:36:39;5.90;;;3.00;;
11078;SDS011;5592;49.234;7.268;2023-12-20T08:39:04;8.07;;;3.20;;
11078;SDS011;5592;49.234;7.268;2023-12-20T08:41:33;9.30;;;3.07;;
11078;SDS011;5592;49.234;7.268;2023-12-20T08:43:59;10.63;;;3.00;;
11078;SDS011;5592;49.234;7.268;2023-12-20T08:46:25;6.23;;;3.27;;
11078;SDS011;5592;49.234;7.268;2023-12-20T08:48:51;11.43;;;3.67;;
11078;SDS011;5592;49.234;7.268;2023-12-20T08:51:17;14.00;;;3.50;;
11078;SDS011;5592;49.234;7.268;2023-12-20T08:53:43;11.00;;;3.30;;
11078;SDS011;5592;49.234;7.268;2023-12-20T08:56:10;7.10;;;3.10;;
11078;SDS011;5592;49.234;7.268;2023-12-20T08:58:35;6.30;;;3.37;;
11078;SDS011;5592;49.234;7.268;2023-12-20T09:01:01;11.20;;;3.17;;
11078;SDS011;5592;49.234;7.268;2023-12-20T09:03:27;9.03;;;3.60;;
11078;SDS011;5592;49.234;7.268;2023-12-20T09:05:52;7.70;;;3.37;;
11078;SDS011;5592;49.234;7.268;2023-12-20T09:08:18;13.77;;;4.00;;
11078;SDS011;5592;49.234;7.268;2023-12-20T09:10:43;10.03;;;4.60;;
11078;SDS011;5592;49.234;7.268;2023-12-20T09:13:10;14.57;;;4.00;;
11078;SDS011;5592;49.234;7.268;2023-12-20T09:15:36;12.40;;;2.97;;
11078;SDS011;5592;49.234;7.268;2023-12-20T09:18:02;11.37;;;3.00;;
11078;SDS011;5592;49.234;7.268;2023-12-20T09:20:28;10.40;;;3.50;;
11078;SDS011;5592;49.234;7.268;2023-12-20T09:22:55;7.67;;;3.27;;
11078;SDS011;5592;49.234;7.268;2023-12-20T09:25:21;14.03;;;3.50;;
11078;SDS011;5592;49.234;7.268;2023-12-20T09:27:48;6.93;;;2.90;;
11078;SDS011;5592;49.234;7.268;2023-12-20T09:30:13;6.77;;;3.20;;
11078;SDS011;5592;49.234;7.268;2023-12-20T09:32:43;13.87;;;3.40;;
11078;SDS011;5592;49.234;7.268;2023-12-20T09:35:08;14.47;;;3.40;;
11078;SDS011;5592;49.234;7.268;2023-12-20T09:37:34;6.80;;;3.60;;
11078;SDS011;5592;49.234;7.268;2023-12-20T09:40:00;5.10;;;2.90;;
11078;SDS011;5592;49.234;7.268;2023-12-20T09:42:38;14.00;;;4.53;;
11078;SDS011;5592;49.234;7.268;2023-12-20T09:45:14;9.97;;;2.93;;
11078;SDS011;5592;49.234;7.268;2023-12-20T09:47:43;7.20;;;3.17;;
11078;SDS011;5592;49.234;7.268;2023-12-20T09:50:11;17.50;;;3.70;;
11078;SDS011;5592;49.234;7.268;2023-12-20T09:52:38;10.00;;;3.47;;
11078;SDS011;5592;49.234;7.268;2023-12-20T09:55:05;8.37;;;3.67;;
11078;SDS011;5592;49.234;7.268;2023-12-20T09:57:35;7.70;;;3.50;;
11078;SDS011;5592;49.234;7.268;2023-12-20T10:00:01;4.80;;;3.30;;
11078;SDS011;5592;49.234;7.268;2023-12-20T10:02:28;9.90;;;3.83;;
11078;SDS011;5592;49.234;7.268;2023-12-20T10:04:57;7.87;;;4.07;;
11078;SDS011;5592;49.234;7.268;2023-12-20T10:07:23;12.93;;;5.33;;
11078;SDS011;5592;49.234;7.268;2023-12-20T10:09:51;7.07;;;3.20;;
11078;SDS011;5592;49.234;7.268;2023-12-20T10:12:21;8.83;;;3.77;;
11078;SDS011;5592;49.234;7.268;2023-12-20T10:14:46;8.30;;;4.20;;
11078;SDS011;5592;49.234;7.268;2023-12-20T10:17:12;17.80;;;3.70;;
11078;SDS011;5592;49.234;7.268;2023-12-20T10:19:39;7.43;;;3.63;;
11078;SDS011;5592;49.234;7.268;2023-12-20T10:22:06;7.27;;;3.07;;
11078;SDS011;5592;49.234;7.268;2023-12-20T10:24:31;19.30;;;3.20;;
11078;SDS011;5592;49.234;7.268;2023-12-20T10:27:05;8.00;;;3.90;;
11078;SDS011;5592;49.234;7.268;2023-12-20T10:29:35;10.63;;;3.97;;
11078;SDS011;5592;49.234;7.268;2023-12-20T10:32:16;15.93;;;3.50;;
11078;SDS011;5592;49.234;7.268;2023-12-20T10:34:46;9.23;;;3.33;;
11078;SDS011;5592;49.234;7.268;2023-12-20T10:37:13;14.73;;;3.80;;
11078;SDS011;5592;49.234;7.268;2023-12-20T10:39:38;17.13;;;4.03;;
11078;SDS011;5592;49.234;7.268;2023-12-20T10:42:07;7.77;;;3.50;;
11078;SDS011;5592;49.234;7.268;2023-12-20T10:44:37;16.57;;;4.17;;
11078;SDS011;5592;49.234;7.268;2023-12-20T10:47:03;6.77;;;3.97;;
11078;SDS011;5592;49.234;7.268;2023-12-20T10:49:30;8.20;;;3.30;;
11078;SDS011;5592;49.234;7.268;2023-12-20T10:52:02;9.97;;;3.00;;
11078;SDS011;5592;49.234;7.268;2023-12-20T10:54:29;12.40;;;3.57;;
11078;SDS011;5592;49.234;7.268;2023-12-20T10:56:54;7.23;;;2.30;;
11078;SDS011;5592;49.234;7.268;2023-12-20T10:59:23;4.80;;;2.63;;
11078;SDS011;5592;49.234;7.268;2023-12-20T11:01:51;3.90;;;2.37;;
11078;SDS011;5592;49.234;7.268;2023-12-20T11:04:28;8.50;;;2.63;;
11078;SDS011;5592;49.234;7.268;2023-12-20T11:10:20;8.73;;;2.93;;
11078;SDS011;5592;49.234;7.268;2023-12-20T11:12:57;14.40;;;3.50;;
11078;SDS011;5592;49.234;7.268;2023-12-20T11:15:34;13.10;;;3.00;;
11078;SDS011;5592;49.234;7.268;2023-12-20T11:18:03;12.60;;;3.33;;
11078;SDS011;5592;49.234;7.268;2023-12-20T11:20:37;6.63;;;2.27;;
11078;SDS011;5592;49.234;7.268;2023-12-20T11:23:03;10.23;;;2.90;;
11078;SDS011;5592;49.234;7.268;2023-12-20T11:25:30;6.63;;;2.57;;
11078;SDS011;5592;49.234;7.268;2023-12-20T11:28:22;11.10;;;3.03;;
11078;SDS011;5592;49.234;7.268;2023-12-20T11:30:50;7.67;;;2.10;;
11078;SDS011;5592;49.234;7.268;2023-12-20T11:33:23;10.20;;;2.67;;
11078;SDS011;5592;49.234;7.268;2023-12-20T11:36:13;7.13;;;2.07;;
11078;SDS011;5592;49.234;7.268;2023-12-20T11:38:56;8.10;;;2.63;;
11078;SDS011;5592;49.234;7.268;2023-12-20T11:41:25;10.60;;;2.80;;
11078;SDS011;5592;49.234;7.268;2023-12-20T11:43:55;7.17;;;2.50;;
11078;SDS011;5592;49.234;7.268;2023-12-20T11:46:21;11.97;;;2.73;;
11078;SDS011;5592;49.234;7.268;2023-12-20T11:48:47;6.63;;;2.40;;
11078;SDS011;5592;49.234;7.268;2023-12-20T11:51:13;13.10;;;2.53;;
11078;SDS011;5592;49.234;7.268;2023-12-20T11:53:40;7.03;;;2.27;;
11078;SDS011;5592;49.234;7.268;2023-12-20T11:56:08;6.33;;;2.03;;
11078;SDS011;5592;49.234;7.268;2023-12-20T11:58:34;7.27;;;2.23;;
11078;SDS011;5592;49.234;7.268;2023-12-20T12:01:00;9.43;;;2.00;;
11078;SDS011;5592;49.234;7.268;2023-12-20T12:03:29;8.00;;;2.80;;
11078;SDS011;5592;49.234;7.268;2023-12-20T12:05:55;8.83;;;2.30;;
11078;SDS011;5592;49.234;7.268;2023-12-20T12:08:21;11.40;;;3.00;;
11078;SDS011;5592;49.234;7.268;2023-12-20T12:10:46;11.43;;;2.40;;
11078;SDS011;5592;49.234;7.268;2023-12-20T12:13:12;6.80;;;2.00;;
11078;SDS011;5592;49.234;7.268;2023-12-20T12:15:42;9.23;;;2.40;;
11078;SDS011;5592;49.234;7.268;2023-12-20T12:18:08;4.77;;;3.20;;
11078;SDS011;5592;49.234;7.268;2023-12-20T12:20:34;9.17;;;1.70;;
11078;SDS011;5592;49.234;7.268;2023-12-20T12:25:26;7.10;;;2.13;;
11078;SDS011;5592;49.234;7.268;2023-12-20T12:27:53;13.00;;;2.63;;
11078;SDS011;5592;49.234;7.268;2023-12-20T12:30:21;7.93;;;2.07;;
11078;SDS011;5592;49.234;7.268;2023-12-20T12:32:47;6.40;;;1.60;;
11078;SDS011;5592;49.234;7.268;2023-12-20T12:35:13;4.87;;;2.03;;
11078;SDS011;5592;49.234;7.268;2023-12-20T12:37:41;8.43;;;1.70;;
11078;SDS011;5592;49.234;7.268;2023-12-20T12:40:10;5.93;;;2.10;;
11078;SDS011;5592;49.234;7.268;2023-12-20T12:42:40;8.50;;;2.07;;
11078;SDS011;5592;49.234;7.268;2023-12-20T12:45:07;10.03;;;2.73;;
11078;SDS011;5592;49.234;7.268;2023-12-20T12:47:34;9.60;;;2.90;;
11078;SDS011;5592;49.234;7.268;2023-12-20T12:50:00;18.03;;;2.40;;
11078;SDS011;5592;49.234;7.268;2023-12-20T12:52:26;7.70;;;2.20;;
11078;SDS011;5592;49.234;7.268;2023-12-20T12:54:52;10.20;;;2.37;;
11078;SDS011;5592;49.234;7.268;2023-12-20T12:57:18;13.97;;;2.00;;
11078;SDS011;5592;49.234;7.268;2023-12-20T12:59:44;9.67;;;2.47;;
11078;SDS011;5592;49.234;7.268;2023-12-20T13:02:13;11.43;;;2.47;;
11078;SDS011;5592;49.234;7.268;2023-12-20T13:04:42;7.80;;;2.13;;
11078;SDS011;5592;49.234;7.268;2023-12-20T13:07:08;13.73;;;2.57;;
11078;SDS011;5592;49.234;7.268;2023-12-20T13:09:37;7.80;;;2.50;;
11078;SDS011;5592;49.234;7.268;2023-12-20T13:12:04;5.00;;;1.87;;
11078;SDS011;5592;49.234;7.268;2023-12-20T13:14:32;4.33;;;1.67;;
11078;SDS011;5592;49.234;7.268;2023-12-20T13:16:59;13.70;;;2.30;;
11078;SDS011;5592;49.234;7.268;2023-12-20T13:19:28;13.43;;;2.50;;
11078;SDS011;5592;49.234;7.268;2023-12-20T13:21:55;9.70;;;2.33;;
11078;SDS011;5592;49.234;7.268;2023-12-20T13:24:20;4.80;;;1.50;;
11078;SDS011;5592;49.234;7.268;2023-12-20T13:26:46;7.33;;;2.00;;
11078;SDS011;5592;49.234;7.268;2023-12-20T13:29:13;6.03;;;1.63;;
11078;SDS011;5592;49.234;7.268;2023-12-20T13:31:39;9.37;;;2.60;;
11078;SDS011;5592;49.234;7.268;2023-12-20T13:34:05;10.17;;;1.80;;
11078;SDS011;5592;49.234;7.268;2023-12-20T13:36:31;5.90;;;2.00;;
11078;SDS011;5592;49.234;7.268;2023-12-20T13:38:57;6.87;;;2.77;;
11078;SDS011;5592;49.234;7.268;2023-12-20T13:41:22;16.27;;;2.60;;
11078;SDS011;5592;49.234;7.268;2023-12-20T13:43:48;8.50;;;2.37;;
11078;SDS011;5592;49.234;7.268;2023-12-20T13:46:13;7.57;;;2.00;;
11078;SDS011;5592;49.234;7.268;2023-12-20T13:48:39;16.70;;;2.20;;
11078;SDS011;5592;49.234;7.268;2023-12-20T13:51:05;9.30;;;2.40;;
11078;SDS011;5592;49.234;7.268;2023-12-20T13:53:31;14.40;;;2.57;;
11078;SDS011;5592;49.234;7.268;2023-12-20T13:55:56;10.80;;;2.40;;
11078;SDS011;5592;49.234;7.268;2023-12-20T13:58:22;12.47;;;2.60;;
11078;SDS011;5592;49.234;7.268;2023-12-20T14:00:48;8.27;;;2.23;;
11078;SDS011;5592;49.234;7.268;2023-12-20T14:03:14;4.77;;;1.90;;
11078;SDS011;5592;49.234;7.268;2023-12-20T14:05:40;5.90;;;1.83;;
11078;SDS011;5592;49.234;7.268;2023-12-20T14:08:06;12.07;;;2.30;;
11078;SDS011;5592;49.234;7.268;2023-12-20T14:10:32;6.80;;;2.03;;
11078;SDS011;5592;49.234;7.268;2023-12-20T14:12:58;5.10;;;2.20;;
11078;SDS011;5592;49.234;7.268;2023-12-20T14:15:23;17.93;;;2.60;;
11078;SDS011;5592;49.234;7.268;2023-12-20T14:17:50;11.97;;;2.30;;
11078;SDS011;5592;49.234;7.268;2023-12-20T14:20:16;11.10;;;2.60;;
11078;SDS011;5592;49.234;7.268;2023-12-20T14:22:43;10.53;;;3.20;;
11078;SDS011;5592;49.234;7.268;2023-12-20T14:25:12;15.07;;;2.43;;
11078;SDS011;5592;49.234;7.268;2023-12-20T14:27:42;25.93;;;3.13;;
11078;SDS011;5592;49.234;7.268;2023-12-20T14:30:08;10.83;;;2.87;;
11078;SDS011;5592;49.234;7.268;2023-12-20T14:32:34;8.00;;;2.00;;
11078;SDS011;5592;49.234;7.268;2023-12-20T14:35:04;12.73;;;2.40;;
11078;SDS011;5592;49.234;7.268;2023-12-20T14:37:31;14.13;;;2.27;;
11078;SDS011;5592;49.234;7.268;2023-12-20T14:39:57;6.70;;;2.40;;
11078;SDS011;5592;49.234;7.268;2023-12-20T14:42:23;13.70;;;2.60;;
11078;SDS011;5592;49.234;7.268;2023-12-20T14:44:48;8.50;;;2.07;;
11078;SDS011;5592;49.234;7.268;2023-12-20T14:47:14;10.00;;;3.57;;
11078;SDS011;5592;49.234;7.268;2023-12-20T14:49:40;15.63;;;2.77;;
11078;SDS011;5592;49.234;7.268;2023-12-20T14:52:06;13.73;;;2.53;;
11078;SDS011;5592;49.234;7.268;2023-12-20T14:54:35;11.87;;;3.17;;
11078;SDS011;5592;49.234;7.268;2023-12-20T14:57:01;7.17;;;2.20;;
11078;SDS011;5592;49.234;7.268;2023-12-20T14:59:26;7.73;;;2.53;;
11078;SDS011;5592;49.234;7.268;2023-12-20T15:01:52;14.53;;;2.80;;